createdAt,value
2022-11-24T00:00:12.336Z,36.0360
2022-11-24T00:01:14.116Z,35.9830
2022-11-24T00:02:14.490Z,35.9720
2022-11-24T00:03:17.004Z,35.8970
2022-11-24T00:04:18.880Z,36.0240
2022-11-24T00:05:21.185Z,35.9890
2022-11-24T00:06:21.340Z,36.1020
2022-11-24T00:07:23.724Z,36.1080
2022-11-24T00:08:25.964Z,36.1660
2022-11-24T00:09:28.270Z,36.0910
2022-11-24T00:10:30.571Z,36.1190
2022-11-24T00:11:32.866Z,36.1630
2022-11-24T00:12:35.227Z,36.2430
2022-11-24T00:13:35.165Z,36.3130
2022-11-24T00:14:37.436Z,36.2330
2022-11-24T00:15:39.695Z,36.2570
2022-11-24T00:16:41.992Z,36.3120
2022-11-24T00:17:44.330Z,36.2540
2022-11-24T00:18:46.493Z,36.3090
2022-11-24T00:19:48.740Z,36.3230
2022-11-24T00:22:21.317Z,36.1780
2022-11-24T00:23:23.478Z,36.0910
2022-11-24T00:24:25.613Z,35.9830
2022-11-24T00:25:27.797Z,35.8960
2022-11-24T00:26:30.040Z,35.8490
2022-11-24T00:27:32.258Z,35.8150
2022-11-24T00:28:36.679Z,35.8250
2022-11-24T00:29:26.041Z,35.8380
2022-11-24T00:30:26.355Z,35.7970
2022-11-24T00:31:30.567Z,35.8770
2022-11-24T00:32:30.606Z,35.9070
2022-11-24T00:33:32.859Z,35.9200
2022-11-24T00:34:29.735Z,35.9680
2022-11-24T00:35:30.946Z,35.9790
2022-11-24T00:36:33.218Z,35.9090
2022-11-24T00:37:35.495Z,35.8980
2022-11-24T00:38:35.637Z,35.8880
2022-11-24T00:39:37.950Z,35.9960
2022-11-24T00:40:40.220Z,35.9010
2022-11-24T00:41:42.542Z,35.7750
2022-11-24T00:42:44.794Z,35.8120
2022-11-24T00:43:47.097Z,35.9150
2022-11-24T00:44:49.438Z,35.9620
2022-11-24T00:45:51.621Z,35.9030
2022-11-24T00:46:51.692Z,35.8370
2022-11-24T00:47:53.786Z,35.8010
2022-11-24T00:48:56.004Z,35.8860
2022-11-24T00:49:58.248Z,35.9150
2022-11-24T00:51:00.344Z,35.9140
2022-11-24T00:52:02.616Z,35.9280
2022-11-24T00:53:04.900Z,35.8940
2022-11-24T00:54:07.210Z,35.9950
2022-11-24T00:55:09.553Z,35.9780
2022-11-24T00:56:11.847Z,35.9780
2022-11-24T00:57:11.992Z,35.9620
2022-11-24T00:58:14.264Z,35.9450
2022-11-24T00:59:16.543Z,35.9830
2022-11-24T01:00:18.910Z,36.0050
2022-11-24T01:01:21.260Z,35.9860
2022-11-24T01:02:23.517Z,35.9990
2022-11-24T01:03:23.614Z,35.9530
2022-11-24T01:04:25.924Z,35.9720
2022-11-24T01:05:28.296Z,35.9530
2022-11-24T01:06:30.555Z,35.9890
2022-11-24T01:07:32.912Z,35.9110
2022-11-24T01:08:35.190Z,35.9060
2022-11-24T01:09:37.392Z,35.9000
2022-11-24T01:10:39.765Z,35.8680
2022-11-24T01:11:41.952Z,35.9530
2022-11-24T01:12:44.188Z,35.9480
2022-11-24T01:13:46.480Z,35.9350
2022-11-24T01:14:48.793Z,36.0270
2022-11-24T01:15:51.186Z,36.0080
2022-11-24T01:16:51.214Z,36.1030
2022-11-24T01:17:53.487Z,36.0800
2022-11-24T01:18:55.769Z,36.0670
2022-11-24T01:19:58.048Z,36.0050
2022-11-24T01:21:00.395Z,35.9940
2022-11-24T01:22:02.617Z,35.9360
2022-11-24T01:23:04.897Z,35.9460
2022-11-24T01:24:05.039Z,35.9100
2022-11-24T01:25:07.368Z,35.9640
2022-11-24T01:26:09.720Z,35.9270
2022-11-24T01:27:12.010Z,36.0390
2022-11-24T01:28:14.313Z,35.9800
2022-11-24T01:29:16.610Z,35.9460
2022-11-24T01:30:18.901Z,35.9240
2022-11-24T01:31:19.164Z,35.9970
2022-11-24T01:32:21.396Z,35.9530
2022-11-24T01:33:23.667Z,35.9360
2022-11-24T01:34:25.944Z,35.9750
2022-11-24T01:35:28.206Z,35.9530
2022-11-24T01:36:30.637Z,35.9750
2022-11-24T01:37:30.594Z,35.9520
2022-11-24T01:38:32.829Z,35.9880
2022-11-24T01:39:35.053Z,35.9240
2022-11-24T01:40:37.292Z,35.9790
2022-11-24T01:41:39.612Z,36.1810
2022-11-24T01:42:41.817Z,36.1520
2022-11-24T01:43:44.088Z,36.1640
2022-11-24T01:44:46.339Z,36.1660
2022-11-24T01:45:46.533Z,36.0900
2022-11-24T01:46:48.762Z,36.0140
2022-11-24T01:47:51.000Z,36.0580
2022-11-24T01:48:53.249Z,36.0550
2022-11-24T01:49:55.514Z,36.0940
2022-11-24T01:50:57.770Z,36.0780
2022-11-24T01:52:00.124Z,36.0710
2022-11-24T01:53:02.354Z,36.0300
2022-11-24T01:54:04.633Z,36.0470
2022-11-24T01:55:04.734Z,36.0930
2022-11-24T01:56:07.011Z,36.0550
2022-11-24T01:57:09.416Z,36.0660
2022-11-24T01:58:11.574Z,36.0310
2022-11-24T01:59:13.893Z,36.0880
2022-11-24T02:00:16.212Z,36.0520
2022-11-24T02:01:18.550Z,36.0460
2022-11-24T02:02:18.779Z,36.0440
2022-11-24T02:03:20.964Z,36.0770
2022-11-24T02:04:23.253Z,36.0880
2022-11-24T02:05:25.527Z,36.0980
2022-11-24T02:06:27.774Z,36.0770
2022-11-24T02:07:30.198Z,36.1040
2022-11-24T02:08:32.271Z,36.1600
2022-11-24T02:09:34.547Z,36.0980
2022-11-24T02:10:34.703Z,36.0620
2022-11-24T02:11:37.005Z,36.0710
2022-11-24T02:12:39.357Z,36.0080
2022-11-24T02:13:41.576Z,36.0140
2022-11-24T02:14:43.860Z,35.9960
2022-11-24T02:15:46.288Z,35.9700
2022-11-24T02:16:46.278Z,35.9590
2022-11-24T02:17:48.552Z,36.0220
2022-11-24T02:18:50.708Z,36.0930
2022-11-24T02:19:52.921Z,36.1270
2022-11-24T02:20:55.183Z,36.2430
2022-11-24T02:21:57.420Z,36.1650
2022-11-24T02:22:59.748Z,36.1860
2022-11-24T02:24:01.972Z,36.2400
2022-11-24T02:25:04.262Z,36.1770
2022-11-24T02:26:06.543Z,36.1890
2022-11-24T02:27:06.670Z,36.1540
2022-11-24T02:28:08.986Z,36.1180
2022-11-24T02:29:11.243Z,36.1350
2022-11-24T02:30:13.523Z,36.1420
2022-11-24T02:31:15.893Z,36.0970
2022-11-24T02:32:18.094Z,36.1060
2022-11-24T02:33:20.432Z,36.0850
2022-11-24T02:34:20.564Z,36.1060
2022-11-24T02:35:22.839Z,36.0830
2022-11-24T02:36:25.145Z,36.0720
2022-11-24T02:37:27.466Z,35.9870
2022-11-24T02:38:29.912Z,36.0670
2022-11-24T02:39:32.034Z,36.1440
2022-11-24T02:40:34.313Z,36.2680
2022-11-24T02:41:34.443Z,36.2070
2022-11-24T02:42:36.763Z,36.2160
2022-11-24T02:43:39.334Z,36.1780
2022-11-24T02:44:41.416Z,36.1500
2022-11-24T02:45:43.757Z,36.1390
2022-11-24T02:46:46.066Z,36.1330
2022-11-24T02:47:48.367Z,36.1600
2022-11-24T02:48:50.696Z,36.1540
2022-11-24T02:49:52.989Z,36.1640
2022-11-24T02:50:55.261Z,36.1270
2022-11-24T02:51:57.582Z,36.1080
2022-11-24T02:52:57.760Z,36.0940
2022-11-24T02:54:00.140Z,36.1220
2022-11-24T02:55:02.340Z,36.0850
2022-11-24T02:56:04.612Z,36.0520
2022-11-24T02:57:06.904Z,36.0750
2022-11-24T02:58:09.220Z,36.0450
2022-11-24T02:59:11.517Z,36.0680
2022-11-24T03:00:11.605Z,36.0690
2022-11-24T03:01:13.973Z,36.1110
2022-11-24T03:02:16.281Z,36.2120
2022-11-24T03:03:18.467Z,36.3030
2022-11-24T03:04:21.019Z,36.2490
2022-11-24T03:05:23.031Z,36.1890
2022-11-24T03:06:25.325Z,36.2050
2022-11-24T03:07:25.523Z,36.2080
2022-11-24T03:08:27.769Z,36.2100
2022-11-24T03:09:30.342Z,36.1720
2022-11-24T03:10:32.385Z,36.1600
2022-11-24T03:11:34.648Z,36.1550
2022-11-24T03:12:36.895Z,36.1990
2022-11-24T03:13:39.134Z,36.2080
2022-11-24T03:14:41.377Z,36.2260
2022-11-24T03:15:41.575Z,36.1690
2022-11-24T03:16:43.809Z,36.1360
2022-11-24T03:17:46.101Z,36.1000
2022-11-24T03:18:48.410Z,36.1080
2022-11-24T03:19:50.827Z,36.1120
2022-11-24T03:20:53.032Z,36.1030
2022-11-24T03:21:53.187Z,36.1450
2022-11-24T03:22:55.499Z,36.1380
2022-11-24T03:23:57.811Z,36.0910
2022-11-24T03:25:00.216Z,36.0180
2022-11-24T03:26:02.509Z,35.9660
2022-11-24T03:27:02.732Z,35.9900
2022-11-24T03:28:05.104Z,36.0200
2022-11-24T03:29:07.479Z,36.0410
2022-11-24T03:30:09.899Z,36.0500
2022-11-24T03:31:12.236Z,36.1250
2022-11-24T03:32:12.423Z,36.1460
2022-11-24T03:33:14.794Z,36.1780
2022-11-24T03:34:17.167Z,36.2280
2022-11-24T03:35:19.499Z,36.2200
2022-11-24T03:36:21.817Z,36.1570
2022-11-24T03:37:22.016Z,36.1360
2022-11-24T03:38:24.370Z,36.0580
2022-11-24T03:39:26.735Z,36.0720
2022-11-24T03:40:29.148Z,36.1340
2022-11-24T03:41:31.452Z,36.1380
2022-11-24T03:42:31.673Z,36.2190
2022-11-24T03:43:37.822Z,36.1820
2022-11-24T03:44:36.561Z,36.1900
2022-11-24T03:45:45.871Z,36.2070
2022-11-24T03:46:40.948Z,36.2190
2022-11-24T03:47:41.120Z,36.2440
2022-11-24T03:48:43.427Z,36.2120
2022-11-24T03:49:45.783Z,36.3090
2022-11-24T03:50:48.145Z,36.3070
2022-11-24T03:51:50.446Z,36.3540
2022-11-24T03:52:52.764Z,36.2940
2022-11-24T03:53:52.980Z,36.3310
2022-11-24T03:54:55.300Z,36.3880
2022-11-24T03:55:57.884Z,36.4280
2022-11-24T03:56:59.970Z,36.4990
2022-11-24T03:58:00.146Z,36.5320
2022-11-24T03:59:02.458Z,36.5920
2022-11-24T04:00:04.804Z,36.5860
2022-11-24T04:01:07.056Z,36.5550
2022-11-24T04:02:09.387Z,36.5530
2022-11-24T04:03:11.687Z,36.5530
2022-11-24T04:04:13.804Z,36.5080
2022-11-24T04:05:16.101Z,36.4030
2022-11-24T04:06:16.353Z,36.4250
2022-11-24T04:07:18.730Z,36.4380
2022-11-24T04:08:21.099Z,36.4890
2022-11-24T04:09:23.467Z,36.4940
2022-11-24T04:10:23.644Z,36.5000
2022-11-24T04:11:26.065Z,36.5170
2022-11-24T04:12:28.343Z,36.5270
2022-11-24T04:13:30.719Z,36.5480
2022-11-24T04:14:33.486Z,36.5590
2022-11-24T04:15:35.464Z,36.5840
2022-11-24T04:16:37.879Z,36.5380
2022-11-24T04:17:40.209Z,36.5590
2022-11-24T04:18:42.609Z,36.6250
2022-11-24T04:19:42.798Z,36.5650
2022-11-24T04:20:45.088Z,36.4900
2022-11-24T04:21:47.519Z,36.4930
2022-11-24T04:22:49.869Z,36.5710
2022-11-24T04:23:52.255Z,36.5760
2022-11-24T04:24:52.520Z,36.5440
2022-11-24T04:25:54.861Z,36.5650
2022-11-24T04:26:57.391Z,36.6620
2022-11-24T04:27:59.605Z,36.7840
2022-11-24T04:28:59.826Z,36.5050
2022-11-24T04:30:02.192Z,36.5470
2022-11-24T04:31:04.645Z,36.4470
2022-11-24T04:32:06.962Z,36.5040
2022-11-24T04:33:07.148Z,36.5310
2022-11-24T04:34:09.541Z,36.5080
2022-11-24T04:35:11.912Z,36.5300
2022-11-24T04:36:14.252Z,36.5510
2022-11-24T04:37:14.487Z,36.5650
2022-11-24T04:39:23.289Z,36.6470
2022-11-24T04:39:26.326Z,36.7550
2022-11-24T04:40:21.544Z,36.7380
2022-11-24T04:41:23.845Z,36.7330
2022-11-24T04:42:24.120Z,36.6920
2022-11-24T04:43:26.454Z,36.8040
2022-11-24T04:44:28.817Z,36.7380
2022-11-24T04:45:31.192Z,36.9210
2022-11-24T04:46:33.683Z,36.6130
2022-11-24T04:47:33.827Z,36.4000
2022-11-24T04:48:36.176Z,36.3550
2022-11-24T04:49:38.557Z,36.4080
2022-11-24T04:50:40.920Z,36.5130
2022-11-24T04:51:41.114Z,36.5860
2022-11-24T04:52:43.461Z,36.6430
2022-11-24T04:53:45.764Z,36.6620
2022-11-24T04:54:48.125Z,36.6460
2022-11-24T04:55:50.467Z,36.5300
2022-11-24T04:56:50.635Z,36.5650
2022-11-24T04:57:53.027Z,36.5530
2022-11-24T04:58:55.313Z,36.4700
2022-11-24T04:59:57.647Z,36.4410
2022-11-24T05:00:59.981Z,36.4330
2022-11-24T05:02:02.363Z,36.5830
2022-11-24T05:03:02.478Z,36.7160
2022-11-24T05:04:04.851Z,36.7140
2022-11-24T05:05:07.137Z,36.7420
2022-11-24T05:06:09.479Z,36.8210
2022-11-24T05:07:17.788Z,36.8920
2022-11-24T05:08:12.036Z,36.9340
2022-11-24T05:09:14.310Z,36.9260
2022-11-24T05:10:16.611Z,36.8850
2022-11-24T05:11:18.964Z,36.9400
2022-11-24T05:12:19.114Z,36.8770
2022-11-24T05:13:23.589Z,36.8540
2022-11-24T05:14:24.789Z,37.0610
2022-11-24T05:15:27.081Z,37.1620
2022-11-24T05:16:27.395Z,37.2940
2022-11-24T05:17:29.625Z,37.3900
2022-11-24T05:18:31.950Z,37.5140
2022-11-24T05:19:34.224Z,37.5200
2022-11-24T05:20:36.541Z,37.5020
2022-11-24T05:21:38.853Z,37.5200
2022-11-24T05:22:41.156Z,37.5370
2022-11-24T05:23:43.521Z,37.5970
2022-11-24T05:24:45.801Z,37.6200
2022-11-24T05:25:48.200Z,37.8080
2022-11-24T05:26:50.467Z,37.8900
2022-11-24T05:27:52.803Z,37.9310
2022-11-24T05:28:55.283Z,37.8980
2022-11-24T05:29:57.446Z,37.8760
2022-11-24T05:30:59.796Z,37.8860
2022-11-24T05:32:02.107Z,37.8150
2022-11-24T05:33:04.420Z,37.8490
2022-11-24T05:34:06.793Z,37.9050
2022-11-24T05:35:09.096Z,37.9220
2022-11-24T05:36:11.444Z,38.0370
2022-11-24T05:37:13.781Z,38.1080
2022-11-24T05:38:13.976Z,38.0790
2022-11-24T05:39:16.337Z,38.1610
2022-11-24T05:40:18.634Z,38.3290
2022-11-24T05:41:20.935Z,38.3290
2022-11-24T05:42:23.270Z,38.4160
2022-11-24T05:43:25.589Z,38.4630
2022-11-24T05:44:27.978Z,38.5160
2022-11-24T05:45:30.230Z,38.5580
2022-11-24T05:46:32.627Z,38.5580
2022-11-24T05:47:34.885Z,38.6510
2022-11-24T05:48:37.213Z,38.6290
2022-11-24T05:49:39.674Z,38.6330
2022-11-24T05:50:41.863Z,38.6050
2022-11-24T05:51:44.185Z,38.6000
2022-11-24T05:52:46.489Z,38.5540
2022-11-24T05:53:48.782Z,38.5760
2022-11-24T05:54:51.132Z,38.6230
2022-11-24T05:55:53.351Z,38.5690
2022-11-24T05:56:55.676Z,38.5550
2022-11-24T05:57:55.819Z,38.5610
2022-11-24T05:58:58.075Z,38.5260
2022-11-24T06:00:00.356Z,38.5070
2022-11-24T06:01:02.575Z,38.6050
2022-11-24T06:02:02.794Z,38.5810
2022-11-24T06:03:05.249Z,38.5210
2022-11-24T06:04:07.363Z,38.5630
2022-11-24T06:05:09.714Z,38.5040
2022-11-24T06:06:12.043Z,38.5350
2022-11-24T06:07:14.453Z,38.4830
2022-11-24T06:08:16.709Z,38.4070
2022-11-24T06:09:19.058Z,38.4590
2022-11-24T06:10:21.422Z,38.4250
2022-11-24T06:11:21.612Z,38.3590
2022-11-24T06:12:23.998Z,38.4030
2022-11-24T06:13:26.427Z,38.3740
2022-11-24T06:14:26.602Z,38.4000
2022-11-24T06:15:29.073Z,38.4190
2022-11-24T06:16:31.436Z,38.3900
2022-11-24T06:17:31.570Z,38.4220
2022-11-24T06:18:33.942Z,38.4750
2022-11-24T06:19:41.484Z,38.4520
2022-11-24T06:20:36.546Z,38.5100
2022-11-24T06:21:38.855Z,38.4690
2022-11-24T06:22:41.211Z,38.4330
2022-11-24T06:23:41.424Z,38.3930
2022-11-24T06:24:43.780Z,38.3680
2022-11-24T06:25:51.269Z,38.4050
2022-11-24T06:26:46.340Z,38.3680
2022-11-24T06:27:48.736Z,38.3870
2022-11-24T06:28:51.103Z,38.4160
2022-11-24T06:29:51.315Z,38.3680
2022-11-24T06:30:53.824Z,38.3330
2022-11-24T06:31:56.118Z,38.3160
2022-11-24T06:32:58.396Z,38.3050
2022-11-24T06:34:00.823Z,38.2800
2022-11-24T06:35:03.130Z,38.3020
2022-11-24T06:36:03.388Z,38.3550
2022-11-24T06:37:05.704Z,38.2910
2022-11-24T06:38:08.066Z,38.3120
2022-11-24T06:39:08.203Z,38.2750
2022-11-24T06:40:10.561Z,38.2640
2022-11-24T06:41:12.940Z,38.2700
2022-11-24T06:42:15.214Z,38.2500
2022-11-24T06:43:17.561Z,38.2010
2022-11-24T06:44:19.860Z,38.1420
2022-11-24T06:45:22.127Z,38.0870
2022-11-24T06:46:24.582Z,38.1270
2022-11-24T06:47:26.699Z,38.1250
2022-11-24T06:48:29.077Z,38.0500
2022-11-24T06:49:31.482Z,38.0750
2022-11-24T06:50:33.970Z,38.0700
2022-11-24T06:51:36.135Z,38.0780
2022-11-24T06:52:38.471Z,38.0700
2022-11-24T06:53:40.855Z,38.0870
2022-11-24T06:54:41.094Z,38.1260
2022-11-24T06:55:43.447Z,38.1030
2022-11-24T06:56:45.820Z,38.0670
2022-11-24T06:57:46.025Z,38.0530
2022-11-24T06:58:48.409Z,38.0260
2022-11-24T06:59:50.772Z,38.0860
2022-11-24T07:00:51.053Z,38.0310
2022-11-24T07:01:53.370Z,37.9720
2022-11-24T07:02:55.760Z,38.0260
2022-11-24T07:03:58.015Z,38.0320
2022-11-24T07:05:00.327Z,37.9750
2022-11-24T07:06:02.679Z,38.0170
2022-11-24T07:07:02.898Z,38.0530
2022-11-24T07:08:05.257Z,38.0250
2022-11-24T07:09:07.607Z,38.1130
2022-11-24T07:10:09.917Z,38.0550
2022-11-24T07:11:12.274Z,38.0630
2022-11-24T07:12:14.671Z,38.0550
2022-11-24T07:13:14.862Z,38.0020
2022-11-24T07:14:17.210Z,38.0020
2022-11-24T07:15:19.580Z,38.1230
2022-11-24T07:16:19.873Z,38.0690
2022-11-24T07:17:22.226Z,38.0360
2022-11-24T07:18:24.521Z,38.0020
2022-11-24T07:19:25.336Z,37.9750
2022-11-24T07:20:27.067Z,37.9140
2022-11-24T07:21:29.442Z,37.9790
2022-11-24T07:22:29.774Z,37.9380
2022-11-24T07:23:32.003Z,37.9440
2022-11-24T07:24:34.633Z,37.9610
2022-11-24T07:25:36.680Z,37.8960
2022-11-24T07:26:39.074Z,37.9520
2022-11-24T07:27:41.522Z,38.0120
2022-11-24T07:28:41.705Z,38.0570
2022-11-24T07:29:44.093Z,38.0720
2022-11-24T07:30:46.471Z,38.0420
2022-11-24T07:31:46.783Z,37.9790
2022-11-24T07:32:49.145Z,37.9250
2022-11-24T07:33:51.468Z,37.9600
2022-11-24T07:34:51.642Z,37.9840
2022-11-24T07:35:53.984Z,37.9600
2022-11-24T07:36:56.327Z,38.0570
2022-11-24T07:37:56.664Z,38.0060
2022-11-24T07:38:58.860Z,37.9580
2022-11-24T07:40:01.132Z,38.0180
2022-11-24T07:41:03.331Z,37.9980
2022-11-24T07:42:05.530Z,37.9470
2022-11-24T07:43:07.867Z,38.0060
2022-11-24T07:44:09.937Z,38.0080
2022-11-24T07:45:12.153Z,38.0360
2022-11-24T07:46:14.453Z,37.8010
2022-11-24T07:47:16.615Z,37.7740
2022-11-24T07:48:18.921Z,37.8070
2022-11-24T07:49:21.093Z,37.8370
2022-11-24T07:50:23.322Z,37.8220
2022-11-24T07:51:25.598Z,37.7590
2022-11-24T07:52:27.966Z,37.7310
2022-11-24T07:53:30.314Z,37.7420
2022-11-24T07:54:33.104Z,37.7530
2022-11-24T07:55:34.961Z,37.7120
2022-11-24T07:56:37.318Z,37.7370
2022-11-24T07:57:39.659Z,37.7390
2022-11-24T07:59:55.283Z,37.5840
2022-11-24T08:00:57.314Z,37.4300
2022-11-24T08:01:59.571Z,37.3770
2022-11-24T08:03:01.848Z,37.3220
2022-11-24T08:04:04.262Z,37.3190
2022-11-24T08:05:06.457Z,37.2430
2022-11-24T08:06:27.252Z,37.2600
2022-11-24T08:07:11.028Z,37.2680
2022-11-24T08:08:11.128Z,37.2410
2022-11-24T08:09:13.415Z,37.2180
2022-11-24T08:10:15.732Z,37.2500
2022-11-24T08:11:18.006Z,37.2620
2022-11-24T08:12:20.285Z,37.2600
2022-11-24T08:13:22.571Z,37.2410
2022-11-24T08:14:24.859Z,37.2870
2022-11-24T08:15:25.040Z,37.2810
2022-11-24T08:16:27.395Z,37.2470
2022-11-24T08:17:29.579Z,37.2230
2022-11-24T08:18:31.847Z,37.2000
2022-11-24T08:19:34.156Z,37.2230
2022-11-24T08:20:36.443Z,37.2110
2022-11-24T08:21:38.702Z,37.1900
2022-11-24T08:22:40.988Z,37.1790
2022-11-24T08:23:41.159Z,37.1900
2022-11-24T08:24:43.463Z,37.1840
2022-11-24T08:25:45.813Z,37.1670
2022-11-24T08:26:48.084Z,37.1670
2022-11-24T08:27:50.399Z,37.1940
2022-11-24T08:28:52.661Z,37.1570
2022-11-24T08:29:52.785Z,37.1360
2022-11-24T08:30:55.103Z,37.1480
2022-11-24T08:31:57.424Z,37.1870
2022-11-24T08:32:59.724Z,37.1540
2022-11-24T08:34:01.951Z,37.1520
2022-11-24T08:35:18.915Z,37.1520
2022-11-24T08:36:04.415Z,37.1460
2022-11-24T08:37:06.693Z,37.1460
2022-11-24T08:38:09.018Z,37.1790
2022-11-24T08:39:11.353Z,37.1900
2022-11-24T08:40:13.712Z,37.1840
2022-11-24T08:41:16.109Z,37.1790
2022-11-24T08:42:16.310Z,37.1520
2022-11-24T08:43:18.656Z,37.1430
2022-11-24T08:44:21.021Z,37.1610
2022-11-24T08:45:25.628Z,37.1800
2022-11-24T08:46:23.824Z,37.1570
2022-11-24T08:47:25.973Z,37.1310
2022-11-24T08:48:28.317Z,37.1170
2022-11-24T08:49:30.668Z,37.0750
2022-11-24T08:50:33.058Z,37.0710
2022-11-24T08:51:33.391Z,37.0730
2022-11-24T08:52:35.629Z,37.1380
2022-11-24T08:53:37.955Z,37.1040
2022-11-24T08:54:40.314Z,37.0810
2022-11-24T08:55:42.638Z,37.1070
2022-11-24T08:56:42.886Z,37.0900
2022-11-24T08:57:45.230Z,37.0380
2022-11-24T08:58:47.666Z,36.9430
2022-11-24T08:59:49.975Z,37.0480
2022-11-24T09:00:52.352Z,37.0840
2022-11-24T09:01:52.628Z,37.0150
2022-11-24T09:02:54.935Z,37.0380
2022-11-24T09:03:57.391Z,37.0380
2022-11-24T09:04:59.698Z,37.0150
2022-11-24T09:05:59.947Z,37.0150
2022-11-24T09:07:02.355Z,37.0150
2022-11-24T09:08:04.688Z,37.1780
2022-11-24T09:09:07.086Z,37.1900
2022-11-24T09:10:07.301Z,37.3400
2022-11-24T09:11:09.668Z,37.4370
2022-11-24T09:12:14.845Z,37.5070
2022-11-24T09:13:14.385Z,37.4610
2022-11-24T09:14:14.593Z,37.5790
2022-11-24T09:15:16.966Z,37.6740
2022-11-24T09:16:19.459Z,37.7960
2022-11-24T09:17:21.715Z,37.8790
2022-11-24T09:18:27.587Z,37.7100
2022-11-24T09:19:24.281Z,37.7220
2022-11-24T09:20:26.617Z,37.7100
2022-11-24T09:21:29.004Z,37.7600
2022-11-24T09:22:31.369Z,37.6490
2022-11-24T09:23:33.692Z,37.6110
2022-11-24T09:24:33.899Z,37.5510
2022-11-24T09:25:36.279Z,37.5610
2022-11-24T09:26:43.051Z,37.6210
2022-11-24T09:27:41.020Z,37.5890
2022-11-24T09:28:41.189Z,37.5330
2022-11-24T09:29:43.553Z,37.5490
2022-11-24T09:30:45.964Z,37.5610
2022-11-24T09:31:48.249Z,37.6050
2022-11-24T09:32:50.636Z,37.6740
2022-11-24T09:33:50.807Z,37.7170
2022-11-24T09:34:53.110Z,37.6770
2022-11-24T09:35:55.451Z,37.6540
2022-11-24T09:36:57.792Z,37.6260
2022-11-24T09:38:00.204Z,37.5550
2022-11-24T09:39:02.389Z,37.5470
2022-11-24T09:40:58.575Z,37.5160
2022-11-24T09:42:00.860Z,37.4450
2022-11-24T09:43:03.247Z,37.4500
2022-11-24T09:44:03.368Z,37.4460
2022-11-24T09:45:05.687Z,37.3890
2022-11-24T09:46:08.062Z,37.3500
2022-11-24T09:47:10.233Z,37.1220
2022-11-24T09:48:12.579Z,37.2230
2022-11-24T09:49:14.720Z,37.2670
2022-11-24T09:50:16.991Z,37.3680
2022-11-24T09:51:19.284Z,37.1680
2022-11-24T09:52:19.443Z,37.2810
2022-11-24T09:53:21.700Z,37.2390
2022-11-24T09:54:23.933Z,37.3630
2022-11-24T09:55:26.215Z,37.4060
2022-11-24T09:56:28.462Z,37.2850
2022-11-24T09:57:35.828Z,37.2970
2022-11-24T09:58:33.065Z,37.3570
2022-11-24T09:59:35.667Z,37.2940
2022-11-24T10:00:35.445Z,37.2790
2022-11-24T10:01:37.884Z,37.2430
2022-11-24T10:02:40.006Z,37.1980
2022-11-24T10:03:42.398Z,37.1600
2022-11-24T10:04:44.553Z,37.1180
2022-11-24T10:05:46.759Z,37.1430
2022-11-24T10:06:49.096Z,37.0940
2022-11-24T10:07:51.483Z,37.0410
2022-11-24T10:08:51.623Z,36.9820
2022-11-24T10:09:53.943Z,37.0120
2022-11-24T10:10:56.264Z,37.0900
2022-11-24T10:11:58.583Z,37.1070
2022-11-24T10:13:00.881Z,37.0670
2022-11-24T10:14:03.282Z,37.0740
2022-11-24T10:15:05.541Z,37.1660
2022-11-24T10:16:07.957Z,37.0840
2022-11-24T10:17:10.232Z,37.0230
2022-11-24T10:18:16.775Z,36.9860
2022-11-24T10:19:12.780Z,37.0130
2022-11-24T10:20:15.105Z,37.0180
2022-11-24T10:21:17.440Z,36.9060
2022-11-24T10:22:19.784Z,36.9590
2022-11-24T10:23:22.171Z,36.9860
2022-11-24T10:24:22.426Z,36.9200
2022-11-24T10:25:24.598Z,36.9160
2022-11-24T10:26:26.907Z,36.8840
2022-11-24T10:27:29.234Z,36.9500
2022-11-24T10:28:31.556Z,36.9500
2022-11-24T10:29:34.114Z,37.0250
2022-11-24T10:30:34.043Z,36.8440
2022-11-24T10:31:36.456Z,36.9510
2022-11-24T10:32:38.663Z,36.9910
2022-11-24T10:33:40.965Z,36.9790
2022-11-24T10:34:43.287Z,36.8880
2022-11-24T10:35:45.571Z,36.9880
2022-11-24T10:36:47.864Z,37.0270
2022-11-24T10:37:47.994Z,37.0320
2022-11-24T10:38:50.291Z,36.9640
2022-11-24T10:39:57.096Z,37.0840
2022-11-24T10:40:57.561Z,37.0840
2022-11-24T10:41:57.097Z,37.0620
2022-11-24T10:42:59.381Z,37.1040
2022-11-24T10:44:01.704Z,37.1040
2022-11-24T10:45:01.957Z,37.0610
2022-11-24T10:46:04.155Z,37.0230
2022-11-24T10:47:06.376Z,37.0160
2022-11-24T10:48:08.687Z,36.9360
2022-11-24T10:49:10.897Z,36.9250
2022-11-24T10:50:13.144Z,36.9190
2022-11-24T10:51:15.291Z,36.9570
2022-11-24T10:52:17.458Z,36.9690
2022-11-24T10:53:19.623Z,37.0160
2022-11-24T10:54:21.873Z,36.9880
2022-11-24T10:55:22.115Z,36.9890
2022-11-24T10:56:24.293Z,37.0390
2022-11-24T10:57:26.593Z,37.0420
2022-11-24T10:58:34.293Z,37.0070
2022-11-24T10:59:31.189Z,37.0450
2022-11-24T11:00:33.642Z,37.0750
2022-11-24T11:01:35.827Z,37.1230
2022-11-24T11:02:36.027Z,37.1520
2022-11-24T11:03:38.307Z,37.2150
2022-11-24T11:04:40.617Z,37.2690
2022-11-24T11:05:42.991Z,37.2390
2022-11-24T11:06:45.266Z,37.2650
2022-11-24T11:07:47.638Z,37.3460
2022-11-24T11:08:47.830Z,37.4750
2022-11-24T11:09:50.195Z,37.5210
2022-11-24T11:10:52.561Z,37.5900
2022-11-24T11:11:55.556Z,37.5970
2022-11-24T11:12:55.154Z,37.4980
2022-11-24T11:14:03.487Z,37.5050
2022-11-24T11:14:58.814Z,37.6470
2022-11-24T11:16:01.201Z,37.9580
2022-11-24T11:17:03.437Z,38.0290
2022-11-24T11:18:05.789Z,38.1050
2022-11-24T11:19:26.146Z,38.1420
2022-11-24T11:20:10.346Z,38.0980
2022-11-24T11:21:12.708Z,38.1930
2022-11-24T11:22:14.985Z,38.2740
2022-11-24T11:23:17.300Z,38.3240
2022-11-24T11:24:19.613Z,38.2910
2022-11-24T11:25:21.923Z,38.3480
2022-11-24T11:26:24.198Z,38.4160
2022-11-24T11:27:24.281Z,38.3560
2022-11-24T11:28:26.571Z,38.2940
2022-11-24T11:31:33.722Z,38.3070
2022-11-24T11:34:40.838Z,38.3330
2022-11-24T11:35:42.783Z,38.3650
2022-11-24T11:36:45.155Z,38.3290
2022-11-24T11:37:45.124Z,38.3330
2022-11-24T11:38:47.380Z,38.2830
2022-11-24T11:39:49.661Z,38.3100
2022-11-24T11:40:51.981Z,38.3430
2022-11-24T11:41:52.143Z,38.3810
2022-11-24T11:43:02.352Z,38.2940
2022-11-24T11:43:56.731Z,38.3270
2022-11-24T11:44:58.976Z,38.2940
2022-11-24T11:46:01.365Z,38.1630
2022-11-24T11:47:03.722Z,38.1420
2022-11-24T11:48:05.849Z,38.1770
2022-11-24T11:49:06.021Z,38.1930
2022-11-24T11:50:08.335Z,38.0220
2022-11-24T11:51:26.159Z,38.0830
2022-11-24T11:52:10.934Z,37.9850
2022-11-24T11:53:13.223Z,37.9450
2022-11-24T11:54:15.546Z,37.9750
2022-11-24T11:55:17.841Z,37.9870
2022-11-24T11:56:20.191Z,37.8890
2022-11-24T11:57:22.649Z,37.8950
2022-11-24T11:58:24.866Z,37.9510
2022-11-24T11:59:27.233Z,38.0490
2022-11-24T12:00:29.598Z,38.0510
2022-11-24T12:01:29.827Z,38.0430
2022-11-24T12:02:32.423Z,37.9890
2022-11-24T12:03:34.568Z,37.9110
2022-11-24T12:04:37.076Z,37.9060
2022-11-24T12:05:39.151Z,37.9000
2022-11-24T12:06:41.523Z,37.9400
2022-11-24T12:07:42.234Z,38.0240
2022-11-24T12:09:17.878Z,38.1140
2022-11-24T12:09:46.481Z,38.1760
2022-11-24T12:10:46.707Z,38.2250
2022-11-24T12:11:49.066Z,38.1320
2022-11-24T12:12:51.417Z,37.9740
2022-11-24T12:13:51.596Z,38.0930
2022-11-24T12:14:53.971Z,38.0660
2022-11-24T12:15:56.411Z,38.1050
2022-11-24T12:16:58.668Z,38.2080
2022-11-24T12:18:01.062Z,38.1330
2022-11-24T12:19:03.379Z,38.0310
2022-11-24T12:20:03.585Z,38.0480
2022-11-24T12:21:05.951Z,38.0110
2022-11-24T12:22:08.285Z,37.9390
2022-11-24T12:23:08.528Z,37.8580
2022-11-24T12:24:10.849Z,37.8330
2022-11-24T12:25:13.208Z,37.8610
2022-11-24T12:26:15.552Z,37.8760
2022-11-24T12:27:22.528Z,37.8910
2022-11-24T12:28:20.487Z,37.8870
2022-11-24T12:29:20.439Z,37.8350
2022-11-24T12:30:22.767Z,37.8080
2022-11-24T12:31:25.266Z,37.7940
2022-11-24T12:32:27.503Z,37.8260
2022-11-24T12:33:30.020Z,37.8050
2022-11-24T12:34:32.266Z,37.7900
2022-11-24T12:35:32.459Z,37.7900
2022-11-24T12:36:34.777Z,37.8320